sensor_id;sensor_type;location;lat;lon;timestamp;temperature;humidity
25640;DHT22;13497;48.322;16.204;2023-07-31T00:00:14;17.90;99.90
25640;DHT22;13497;48.322;16.204;2023-07-31T00:02:41;17.90;99.90
25640;DHT22;13497;48.322;16.204;2023-07-31T00:05:07;17.90;99.90
25640;DHT22;13497;48.322;16.204;2023-07-31T00:07:33;17.80;99.90
25640;DHT22;13497;48.322;16.204;2023-07-31T00:09:59;17.80;99.90
25640;DHT22;13497;48.322;16.204;2023-07-31T00:12:24;17.80;99.90
25640;DHT22;13497;48.322;16.204;2023-07-31T00:14:50;17.80;99.90
25640;DHT22;13497;48.322;16.204;2023-07-31T00:17:17;17.70;99.90
25640;DHT22;13497;48.322;16.204;2023-07-31T00:19:43;17.70;99.90
25640;DHT22;13497;48.322;16.204;2023-07-31T00:22:11;17.70;99.90
25640;DHT22;13497;48.322;16.204;2023-07-31T00:24:37;17.80;99.90
25640;DHT22;13497;48.322;16.204;2023-07-31T00:27:03;17.80;99.90
25640;DHT22;13497;48.322;16.204;2023-07-31T00:29:28;17.80;99.90
25640;DHT22;13497;48.322;16.204;2023-07-31T00:31:54;17.80;99.90
25640;DHT22;13497;48.322;16.204;2023-07-31T00:34:20;17.90;99.90
25640;DHT22;13497;48.322;16.204;2023-07-31T00:36:45;17.90;99.90
25640;DHT22;13497;48.322;16.204;2023-07-31T00:39:11;17.80;99.90
25640;DHT22;13497;48.322;16.204;2023-07-31T00:41:37;17.80;99.90
25640;DHT22;13497;48.322;16.204;2023-07-31T00:44:02;17.80;99.90
25640;DHT22;13497;48.322;16.204;2023-07-31T00:46:28;17.90;99.90
25640;DHT22;13497;48.322;16.204;2023-07-31T00:48:54;17.90;99.90
25640;DHT22;13497;48.322;16.204;2023-07-31T00:51:19;17.80;99.90
25640;DHT22;13497;48.322;16.204;2023-07-31T00:53:45;17.80;99.90
25640;DHT22;13497;48.322;16.204;2023-07-31T00:56:12;17.80;99.90
25640;DHT22;13497;48.322;16.204;2023-07-31T00:58:38;17.80;99.90
25640;DHT22;13497;48.322;16.204;2023-07-31T01:01:04;17.80;99.90
25640;DHT22;13497;48.322;16.204;2023-07-31T01:03:30;17.80;99.90
25640;DHT22;13497;48.322;16.204;2023-07-31T01:06:09;17.90;99.90
25640;DHT22;13497;48.322;16.204;2023-07-31T01:11:27;18.00;99.90
25640;DHT22;13497;48.322;16.204;2023-07-31T01:13:55;18.10;99.90
25640;DHT22;13497;48.322;16.204;2023-07-31T01:16:20;18.10;99.90
25640;DHT22;13497;48.322;16.204;2023-07-31T01:18:46;18.10;99.90
25640;DHT22;13497;48.322;16.204;2023-07-31T01:26:35;18.00;99.90
25640;DHT22;13497;48.322;16.204;2023-07-31T01:29:07;18.00;99.90
25640;DHT22;13497;48.322;16.204;2023-07-31T01:31:35;18.00;99.90
25640;DHT22;13497;48.322;16.204;2023-07-31T01:34:02;17.90;99.90
25640;DHT22;13497;48.322;16.204;2023-07-31T01:36:30;17.80;99.90
25640;DHT22;13497;48.322;16.204;2023-07-31T01:38:59;17.80;99.90
25640;DHT22;13497;48.322;16.204;2023-07-31T01:41:26;17.80;99.90
25640;DHT22;13497;48.322;16.204;2023-07-31T01:43:51;17.70;99.90
25640;DHT22;13497;48.322;16.204;2023-07-31T01:46:17;17.70;99.90
25640;DHT22;13497;48.322;16.204;2023-07-31T01:48:43;17.70;99.90
25640;DHT22;13497;48.322;16.204;2023-07-31T01:51:08;17.70;99.90
25640;DHT22;13497;48.322;16.204;2023-07-31T01:53:34;17.70;99.90
25640;DHT22;13497;48.322;16.204;2023-07-31T01:56:00;17.70;99.90
25640;DHT22;13497;48.322;16.204;2023-07-31T01:58:25;17.70;99.90
25640;DHT22;13497;48.322;16.204;2023-07-31T02:00:51;17.70;99.90
25640;DHT22;13497;48.322;16.204;2023-07-31T02:03:16;17.70;99.90
25640;DHT22;13497;48.322;16.204;2023-07-31T02:05:49;17.70;99.90
25640;DHT22;13497;48.322;16.204;2023-07-31T02:08:15;17.70;99.90
25640;DHT22;13497;48.322;16.204;2023-07-31T02:10:41;17.60;99.90
25640;DHT22;13497;48.322;16.204;2023-07-31T02:13:06;17.60;99.90
25640;DHT22;13497;48.322;16.204;2023-07-31T02:15:32;17.60;99.90
25640;DHT22;13497;48.322;16.204;2023-07-31T02:17:58;17.60;99.90
25640;DHT22;13497;48.322;16.204;2023-07-31T02:20:24;17.60;99.90
25640;DHT22;13497;48.322;16.204;2023-07-31T02:22:50;17.50;99.90
25640;DHT22;13497;48.322;16.204;2023-07-31T02:25:15;17.50;99.90
25640;DHT22;13497;48.322;16.204;2023-07-31T02:27:41;17.50;99.90
25640;DHT22;13497;48.322;16.204;2023-07-31T02:30:07;17.50;99.90
25640;DHT22;13497;48.322;16.204;2023-07-31T02:32:33;17.50;99.90
25640;DHT22;13497;48.322;16.204;2023-07-31T02:34:59;17.50;99.90
25640;DHT22;13497;48.322;16.204;2023-07-31T02:37:25;17.40;99.90
25640;DHT22;13497;48.322;16.204;2023-07-31T02:39:50;17.50;99.90
25640;DHT22;13497;48.322;16.204;2023-07-31T02:42:16;17.50;99.90
25640;DHT22;13497;48.322;16.204;2023-07-31T02:44:42;17.60;99.90
25640;DHT22;13497;48.322;16.204;2023-07-31T02:47:07;17.50;99.90
25640;DHT22;13497;48.322;16.204;2023-07-31T02:49:33;17.50;99.90
25640;DHT22;13497;48.322;16.204;2023-07-31T02:51:58;17.50;99.90
25640;DHT22;13497;48.322;16.204;2023-07-31T02:54:24;17.60;99.90
25640;DHT22;13497;48.322;16.204;2023-07-31T02:56:50;17.50;99.90
25640;DHT22;13497;48.322;16.204;2023-07-31T02:59:17;17.50;99.90
25640;DHT22;13497;48.322;16.204;2023-07-31T03:01:42;17.60;99.90
25640;DHT22;13497;48.322;16.204;2023-07-31T03:04:08;17.50;99.90
25640;DHT22;13497;48.322;16.204;2023-07-31T03:06:33;17.60;99.90
25640;DHT22;13497;48.322;16.204;2023-07-31T03:08:59;17.60;99.90
25640;DHT22;13497;48.322;16.204;2023-07-31T03:11:25;17.50;99.90
25640;DHT22;13497;48.322;16.204;2023-07-31T03:13:50;17.60;99.90
25640;DHT22;13497;48.322;16.204;2023-07-31T03:16:16;17.60;99.90
25640;DHT22;13497;48.322;16.204;2023-07-31T03:18:42;17.50;99.90
25640;DHT22;13497;48.322;16.204;2023-07-31T03:21:07;17.50;99.90
25640;DHT22;13497;48.322;16.204;2023-07-31T03:23:33;17.60;99.90
25640;DHT22;13497;48.322;16.204;2023-07-31T03:26:00;17.60;99.90
25640;DHT22;13497;48.322;16.204;2023-07-31T03:28:26;17.60;99.90
25640;DHT22;13497;48.322;16.204;2023-07-31T03:30:52;17.70;99.90
25640;DHT22;13497;48.322;16.204;2023-07-31T03:33:18;17.80;99.90
25640;DHT22;13497;48.322;16.204;2023-07-31T03:35:44;17.80;99.90
25640;DHT22;13497;48.322;16.204;2023-07-31T03:38:10;17.90;99.90
25640;DHT22;13497;48.322;16.204;2023-07-31T03:40:35;17.90;99.90
25640;DHT22;13497;48.322;16.204;2023-07-31T03:43:01;17.90;99.90
25640;DHT22;13497;48.322;16.204;2023-07-31T03:45:27;18.00;99.90
25640;DHT22;13497;48.322;16.204;2023-07-31T03:47:53;17.90;99.90
25640;DHT22;13497;48.322;16.204;2023-07-31T03:50:20;17.90;99.90
25640;DHT22;13497;48.322;16.204;2023-07-31T03:52:46;17.90;99.90
25640;DHT22;13497;48.322;16.204;2023-07-31T03:55:11;17.90;99.90
25640;DHT22;13497;48.322;16.204;2023-07-31T03:57:37;17.90;99.90
25640;DHT22;13497;48.322;16.204;2023-07-31T04:00:03;17.90;99.90
25640;DHT22;13497;48.322;16.204;2023-07-31T04:02:29;17.90;99.90
25640;DHT22;13497;48.322;16.204;2023-07-31T04:04:54;17.90;99.90
25640;DHT22;13497;48.322;16.204;2023-07-31T04:07:20;18.00;99.90
25640;DHT22;13497;48.322;16.204;2023-07-31T04:09:46;18.10;99.90
25640;DHT22;13497;48.322;16.204;2023-07-31T04:12:11;18.10;99.90
25640;DHT22;13497;48.322;16.204;2023-07-31T04:14:37;18.10;99.90
25640;DHT22;13497;48.322;16.204;2023-07-31T04:17:03;18.20;99.90
25640;DHT22;13497;48.322;16.204;2023-07-31T04:19:28;18.30;99.90
25640;DHT22;13497;48.322;16.204;2023-07-31T04:21:54;18.30;99.90
25640;DHT22;13497;48.322;16.204;2023-07-31T04:24:19;18.30;99.90
25640;DHT22;13497;48.322;16.204;2023-07-31T04:26:50;18.40;99.90
25640;DHT22;13497;48.322;16.204;2023-07-31T04:29:16;18.30;99.90
25640;DHT22;13497;48.322;16.204;2023-07-31T04:31:42;18.30;99.90
25640;DHT22;13497;48.322;16.204;2023-07-31T04:34:08;18.40;99.90
25640;DHT22;13497;48.322;16.204;2023-07-31T04:36:35;18.50;99.90
25640;DHT22;13497;48.322;16.204;2023-07-31T04:39:01;18.50;99.90
25640;DHT22;13497;48.322;16.204;2023-07-31T04:41:26;18.50;99.90
25640;DHT22;13497;48.322;16.204;2023-07-31T04:43:53;18.50;99.90
25640;DHT22;13497;48.322;16.204;2023-07-31T04:46:19;18.50;99.90
25640;DHT22;13497;48.322;16.204;2023-07-31T04:48:44;18.50;99.90
25640;DHT22;13497;48.322;16.204;2023-07-31T04:51:10;18.60;99.90
25640;DHT22;13497;48.322;16.204;2023-07-31T04:53:36;18.70;99.90
25640;DHT22;13497;48.322;16.204;2023-07-31T04:56:02;18.70;99.90
25640;DHT22;13497;48.322;16.204;2023-07-31T04:58:27;18.70;99.90
25640;DHT22;13497;48.322;16.204;2023-07-31T05:00:54;18.70;99.90
25640;DHT22;13497;48.322;16.204;2023-07-31T05:03:19;18.70;99.90
25640;DHT22;13497;48.322;16.204;2023-07-31T05:05:45;18.80;99.90
25640;DHT22;13497;48.322;16.204;2023-07-31T05:08:10;18.80;99.90
25640;DHT22;13497;48.322;16.204;2023-07-31T05:10:36;18.80;99.90
25640;DHT22;13497;48.322;16.204;2023-07-31T05:13:02;19.00;99.90
25640;DHT22;13497;48.322;16.204;2023-07-31T05:15:28;19.30;99.90
25640;DHT22;13497;48.322;16.204;2023-07-31T05:17:54;19.50;99.90
25640;DHT22;13497;48.322;16.204;2023-07-31T05:20:21;19.50;99.90
25640;DHT22;13497;48.322;16.204;2023-07-31T05:22:46;19.50;99.90
25640;DHT22;13497;48.322;16.204;2023-07-31T05:25:12;19.60;99.90
25640;DHT22;13497;48.322;16.204;2023-07-31T05:27:38;19.50;99.90
25640;DHT22;13497;48.322;16.204;2023-07-31T05:30:04;19.60;99.90
25640;DHT22;13497;48.322;16.204;2023-07-31T05:32:31;19.60;99.90
25640;DHT22;13497;48.322;16.204;2023-07-31T05:34:56;19.60;99.90
25640;DHT22;13497;48.322;16.204;2023-07-31T05:37:22;19.70;99.90
25640;DHT22;13497;48.322;16.204;2023-07-31T05:39:48;20.10;99.90
25640;DHT22;13497;48.322;16.204;2023-07-31T05:42:14;20.90;99.90
25640;DHT22;13497;48.322;16.204;2023-07-31T05:44:39;21.90;99.90
25640;DHT22;13497;48.322;16.204;2023-07-31T05:47:05;22.70;99.90
25640;DHT22;13497;48.322;16.204;2023-07-31T05:49:31;23.20;99.90
25640;DHT22;13497;48.322;16.204;2023-07-31T05:51:56;23.10;99.90
25640;DHT22;13497;48.322;16.204;2023-07-31T05:54:22;23.00;99.90
25640;DHT22;13497;48.322;16.204;2023-07-31T05:56:48;22.80;99.90
25640;DHT22;13497;48.322;16.204;2023-07-31T05:59:13;22.50;99.90
25640;DHT22;13497;48.322;16.204;2023-07-31T06:01:39;22.40;99.90
25640;DHT22;13497;48.322;16.204;2023-07-31T06:04:05;22.50;99.90
25640;DHT22;13497;48.322;16.204;2023-07-31T06:06:31;22.40;99.90
25640;DHT22;13497;48.322;16.204;2023-07-31T06:08:56;22.10;99.90
25640;DHT22;13497;48.322;16.204;2023-07-31T06:11:22;21.90;99.90
25640;DHT22;13497;48.322;16.204;2023-07-31T06:13:48;21.70;99.90
25640;DHT22;13497;48.322;16.204;2023-07-31T06:16:15;21.80;99.90
25640;DHT22;13497;48.322;16.204;2023-07-31T06:18:41;21.80;99.90
25640;DHT22;13497;48.322;16.204;2023-07-31T06:21:07;21.90;99.90
25640;DHT22;13497;48.322;16.204;2023-07-31T06:23:33;22.10;99.90
25640;DHT22;13497;48.322;16.204;2023-07-31T06:25:59;22.20;99.90
25640;DHT22;13497;48.322;16.204;2023-07-31T06:28:28;22.30;99.90
25640;DHT22;13497;48.322;16.204;2023-07-31T06:30:57;22.40;99.90
25640;DHT22;13497;48.322;16.204;2023-07-31T06:33:24;22.50;99.90
25640;DHT22;13497;48.322;16.204;2023-07-31T06:35:50;22.70;99.90
25640;DHT22;13497;48.322;16.204;2023-07-31T06:38:15;23.40;99.00
25640;DHT22;13497;48.322;16.204;2023-07-31T06:40:41;23.90;97.60
25640;DHT22;13497;48.322;16.204;2023-07-31T06:43:07;24.50;96.80
25640;DHT22;13497;48.322;16.204;2023-07-31T06:45:36;24.50;96.80
25640;DHT22;13497;48.322;16.204;2023-07-31T06:48:02;24.10;96.50
25640;DHT22;13497;48.322;16.204;2023-07-31T06:50:29;23.60;97.00
25640;DHT22;13497;48.322;16.204;2023-07-31T06:52:55;23.20;97.30
25640;DHT22;13497;48.322;16.204;2023-07-31T06:55:21;22.70;97.40
25640;DHT22;13497;48.322;16.204;2023-07-31T06:57:51;22.40;98.10
25640;DHT22;13497;48.322;16.204;2023-07-31T07:00:17;22.30;98.20
25640;DHT22;13497;48.322;16.204;2023-07-31T07:02:43;22.30;98.10
25640;DHT22;13497;48.322;16.204;2023-07-31T07:05:10;22.20;97.80
25640;DHT22;13497;48.322;16.204;2023-07-31T07:07:36;22.20;97.90
25640;DHT22;13497;48.322;16.204;2023-07-31T07:10:02;22.40;98.30
25640;DHT22;13497;48.322;16.204;2023-07-31T07:12:30;22.80;97.40
25640;DHT22;13497;48.322;16.204;2023-07-31T07:14:56;23.00;96.80
25640;DHT22;13497;48.322;16.204;2023-07-31T07:17:23;22.80;96.60
25640;DHT22;13497;48.322;16.204;2023-07-31T07:19:49;22.70;96.60
25640;DHT22;13497;48.322;16.204;2023-07-31T07:22:14;22.50;97.20
25640;DHT22;13497;48.322;16.204;2023-07-31T07:24:40;22.50;97.20
25640;DHT22;13497;48.322;16.204;2023-07-31T07:27:06;22.50;96.10
25640;DHT22;13497;48.322;16.204;2023-07-31T07:29:33;22.60;96.50
25640;DHT22;13497;48.322;16.204;2023-07-31T07:31:59;22.60;96.00
25640;DHT22;13497;48.322;16.204;2023-07-31T07:34:28;22.40;94.80
25640;DHT22;13497;48.322;16.204;2023-07-31T07:36:54;22.20;96.00
25640;DHT22;13497;48.322;16.204;2023-07-31T07:39:20;22.10;96.40
25640;DHT22;13497;48.322;16.204;2023-07-31T07:41:46;22.00;96.60
25640;DHT22;13497;48.322;16.204;2023-07-31T07:44:13;22.10;96.40
25640;DHT22;13497;48.322;16.204;2023-07-31T07:46:38;22.10;96.30
25640;DHT22;13497;48.322;16.204;2023-07-31T07:49:04;22.20;96.00
25640;DHT22;13497;48.322;16.204;2023-07-31T07:51:30;22.20;96.20
25640;DHT22;13497;48.322;16.204;2023-07-31T07:53:58;22.30;96.00
25640;DHT22;13497;48.322;16.204;2023-07-31T07:56:25;22.40;95.80
25640;DHT22;13497;48.322;16.204;2023-07-31T07:58:51;22.50;95.20
25640;DHT22;13497;48.322;16.204;2023-07-31T08:01:17;22.60;95.40
25640;DHT22;13497;48.322;16.204;2023-07-31T08:03:42;22.70;94.40
25640;DHT22;13497;48.322;16.204;2023-07-31T08:06:09;22.70;94.40
25640;DHT22;13497;48.322;16.204;2023-07-31T08:08:35;22.80;94.20
25640;DHT22;13497;48.322;16.204;2023-07-31T08:11:01;22.70;93.50
25640;DHT22;13497;48.322;16.204;2023-07-31T08:13:27;22.70;91.90
25640;DHT22;13497;48.322;16.204;2023-07-31T08:15:52;22.70;92.60
25640;DHT22;13497;48.322;16.204;2023-07-31T08:18:18;22.70;92.20
25640;DHT22;13497;48.322;16.204;2023-07-31T08:20:44;22.70;92.90
25640;DHT22;13497;48.322;16.204;2023-07-31T08:23:10;22.80;93.00
25640;DHT22;13497;48.322;16.204;2023-07-31T08:25:36;23.00;92.90
25640;DHT22;13497;48.322;16.204;2023-07-31T08:28:03;23.00;92.40
25640;DHT22;13497;48.322;16.204;2023-07-31T08:30:29;22.90;92.40
25640;DHT22;13497;48.322;16.204;2023-07-31T08:32:54;23.00;91.80
25640;DHT22;13497;48.322;16.204;2023-07-31T08:35:20;23.10;91.30
25640;DHT22;13497;48.322;16.204;2023-07-31T08:37:45;23.10;90.90
25640;DHT22;13497;48.322;16.204;2023-07-31T08:40:11;23.20;90.30
25640;DHT22;13497;48.322;16.204;2023-07-31T08:42:44;23.40;90.60
25640;DHT22;13497;48.322;16.204;2023-07-31T08:45:14;23.40;89.00
25640;DHT22;13497;48.322;16.204;2023-07-31T08:47:45;23.30;88.40
25640;DHT22;13497;48.322;16.204;2023-07-31T08:50:13;23.30;90.00
25640;DHT22;13497;48.322;16.204;2023-07-31T08:52:39;23.30;87.20
25640;DHT22;13497;48.322;16.204;2023-07-31T08:55:06;23.30;88.60
25640;DHT22;13497;48.322;16.204;2023-07-31T08:57:35;23.40;90.10
25640;DHT22;13497;48.322;16.204;2023-07-31T09:00:05;23.40;87.70
25640;DHT22;13497;48.322;16.204;2023-07-31T09:05:17;23.70;89.40
25640;DHT22;13497;48.322;16.204;2023-07-31T09:07:43;23.70;86.00
25640;DHT22;13497;48.322;16.204;2023-07-31T09:10:11;23.80;86.90
25640;DHT22;13497;48.322;16.204;2023-07-31T09:12:38;23.80;86.30
25640;DHT22;13497;48.322;16.204;2023-07-31T09:15:04;23.80;86.30
25640;DHT22;13497;48.322;16.204;2023-07-31T09:17:31;23.90;87.00
25640;DHT22;13497;48.322;16.204;2023-07-31T09:19:57;24.00;86.80
25640;DHT22;13497;48.322;16.204;2023-07-31T09:22:33;24.10;87.10
25640;DHT22;13497;48.322;16.204;2023-07-31T09:25:18;24.30;86.10
25640;DHT22;13497;48.322;16.204;2023-07-31T09:27:57;24.30;84.30
25640;DHT22;13497;48.322;16.204;2023-07-31T09:30:23;24.30;85.60
25640;DHT22;13497;48.322;16.204;2023-07-31T09:32:49;24.30;84.50
25640;DHT22;13497;48.322;16.204;2023-07-31T09:37:53;24.60;86.90
25640;DHT22;13497;48.322;16.204;2023-07-31T09:40:33;24.60;86.40
25640;DHT22;13497;48.322;16.204;2023-07-31T09:43:02;24.60;85.90
25640;DHT22;13497;48.322;16.204;2023-07-31T09:45:28;24.60;86.00
25640;DHT22;13497;48.322;16.204;2023-07-31T09:47:55;24.60;85.30
25640;DHT22;13497;48.322;16.204;2023-07-31T09:50:22;24.60;85.60
25640;DHT22;13497;48.322;16.204;2023-07-31T09:52:48;24.70;84.50
25640;DHT22;13497;48.322;16.204;2023-07-31T09:55:14;24.90;83.70
25640;DHT22;13497;48.322;16.204;2023-07-31T09:57:41;24.90;84.20
25640;DHT22;13497;48.322;16.204;2023-07-31T10:00:09;24.90;85.00
25640;DHT22;13497;48.322;16.204;2023-07-31T10:02:35;24.70;85.20
25640;DHT22;13497;48.322;16.204;2023-07-31T10:05:03;24.60;83.90
25640;DHT22;13497;48.322;16.204;2023-07-31T10:07:30;24.90;85.10
25640;DHT22;13497;48.322;16.204;2023-07-31T10:09:59;25.20;83.60
25640;DHT22;13497;48.322;16.204;2023-07-31T10:12:26;25.20;82.60
25640;DHT22;13497;48.322;16.204;2023-07-31T10:14:54;25.20;84.20
25640;DHT22;13497;48.322;16.204;2023-07-31T10:17:21;25.20;83.60
25640;DHT22;13497;48.322;16.204;2023-07-31T10:19:48;25.20;84.20
25640;DHT22;13497;48.322;16.204;2023-07-31T10:22:14;25.40;84.80
25640;DHT22;13497;48.322;16.204;2023-07-31T10:24:40;25.50;83.70
25640;DHT22;13497;48.322;16.204;2023-07-31T10:27:08;25.50;83.50
25640;DHT22;13497;48.322;16.204;2023-07-31T10:29:34;25.60;84.00
25640;DHT22;13497;48.322;16.204;2023-07-31T10:32:00;25.50;83.10
25640;DHT22;13497;48.322;16.204;2023-07-31T10:34:27;25.60;85.10
25640;DHT22;13497;48.322;16.204;2023-07-31T10:39:37;25.70;84.00
25640;DHT22;13497;48.322;16.204;2023-07-31T10:42:12;25.60;83.90
25640;DHT22;13497;48.322;16.204;2023-07-31T10:44:43;25.60;84.70
25640;DHT22;13497;48.322;16.204;2023-07-31T10:47:08;25.60;81.80
25640;DHT22;13497;48.322;16.204;2023-07-31T10:49:34;25.70;81.30
25640;DHT22;13497;48.322;16.204;2023-07-31T10:52:03;25.80;82.00
25640;DHT22;13497;48.322;16.204;2023-07-31T10:54:29;25.80;82.40
25640;DHT22;13497;48.322;16.204;2023-07-31T10:56:56;25.90;81.30
25640;DHT22;13497;48.322;16.204;2023-07-31T10:59:26;26.10;83.10
25640;DHT22;13497;48.322;16.204;2023-07-31T11:01:54;26.10;82.10
25640;DHT22;13497;48.322;16.204;2023-07-31T11:04:24;26.30;81.50
25640;DHT22;13497;48.322;16.204;2023-07-31T11:07:00;26.30;79.20
25640;DHT22;13497;48.322;16.204;2023-07-31T11:09:30;26.30;79.10
25640;DHT22;13497;48.322;16.204;2023-07-31T11:11:59;26.40;79.90
25640;DHT22;13497;48.322;16.204;2023-07-31T11:14:24;26.20;79.70
25640;DHT22;13497;48.322;16.204;2023-07-31T11:16:51;26.20;80.20
25640;DHT22;13497;48.322;16.204;2023-07-31T11:19:23;26.40;79.30
25640;DHT22;13497;48.322;16.204;2023-07-31T11:21:49;26.70;80.50
25640;DHT22;13497;48.322;16.204;2023-07-31T11:24:16;26.90;77.80
25640;DHT22;13497;48.322;16.204;2023-07-31T11:26:54;26.90;77.70
25640;DHT22;13497;48.322;16.204;2023-07-31T11:29:20;26.90;79.40
25640;DHT22;13497;48.322;16.204;2023-07-31T11:31:47;27.00;80.40
25640;DHT22;13497;48.322;16.204;2023-07-31T11:34:13;27.10;79.20
25640;DHT22;13497;48.322;16.204;2023-07-31T11:36:39;27.10;79.20
25640;DHT22;13497;48.322;16.204;2023-07-31T11:39:08;27.30;77.70
25640;DHT22;13497;48.322;16.204;2023-07-31T11:41:34;27.30;78.70
25640;DHT22;13497;48.322;16.204;2023-07-31T11:44:00;27.30;78.60
25640;DHT22;13497;48.322;16.204;2023-07-31T11:46:26;27.30;77.70
25640;DHT22;13497;48.322;16.204;2023-07-31T11:48:52;27.40;77.60
25640;DHT22;13497;48.322;16.204;2023-07-31T11:51:24;27.30;77.90
25640;DHT22;13497;48.322;16.204;2023-07-31T11:53:52;27.20;78.90
25640;DHT22;13497;48.322;16.204;2023-07-31T11:56:20;27.10;76.90
25640;DHT22;13497;48.322;16.204;2023-07-31T11:58:50;26.90;77.40
25640;DHT22;13497;48.322;16.204;2023-07-31T12:01:19;26.50;77.20
25640;DHT22;13497;48.322;16.204;2023-07-31T12:03:47;26.40;78.00
25640;DHT22;13497;48.322;16.204;2023-07-31T12:06:13;26.40;78.00
25640;DHT22;13497;48.322;16.204;2023-07-31T12:08:39;26.60;78.80
25640;DHT22;13497;48.322;16.204;2023-07-31T12:11:07;26.60;78.00
25640;DHT22;13497;48.322;16.204;2023-07-31T12:13:35;26.90;78.10
25640;DHT22;13497;48.322;16.204;2023-07-31T12:16:02;27.00;77.90
25640;DHT22;13497;48.322;16.204;2023-07-31T12:18:31;27.00;76.60
25640;DHT22;13497;48.322;16.204;2023-07-31T12:21:01;27.10;76.30
25640;DHT22;13497;48.322;16.204;2023-07-31T12:23:34;27.20;75.70
25640;DHT22;13497;48.322;16.204;2023-07-31T12:26:14;27.20;75.60
25640;DHT22;13497;48.322;16.204;2023-07-31T12:28:45;27.20;76.30
25640;DHT22;13497;48.322;16.204;2023-07-31T12:31:31;27.30;77.10
25640;DHT22;13497;48.322;16.204;2023-07-31T12:33:58;27.40;77.90
25640;DHT22;13497;48.322;16.204;2023-07-31T12:36:24;27.60;77.20
25640;DHT22;13497;48.322;16.204;2023-07-31T12:38:50;27.60;76.50
25640;DHT22;13497;48.322;16.204;2023-07-31T12:41:17;27.40;77.20
25640;DHT22;13497;48.322;16.204;2023-07-31T12:43:44;27.40;76.90
25640;DHT22;13497;48.322;16.204;2023-07-31T12:46:10;27.60;76.20
25640;DHT22;13497;48.322;16.204;2023-07-31T12:48:37;27.90;75.30
25640;DHT22;13497;48.322;16.204;2023-07-31T12:51:04;28.20;76.70
25640;DHT22;13497;48.322;16.204;2023-07-31T12:53:29;28.10;75.00
25640;DHT22;13497;48.322;16.204;2023-07-31T12:55:56;27.90;74.20
25640;DHT22;13497;48.322;16.204;2023-07-31T12:58:22;27.90;75.30
25640;DHT22;13497;48.322;16.204;2023-07-31T13:00:48;28.00;75.20
25640;DHT22;13497;48.322;16.204;2023-07-31T13:03:13;28.20;75.10
25640;DHT22;13497;48.322;16.204;2023-07-31T13:05:39;28.30;74.20
25640;DHT22;13497;48.322;16.204;2023-07-31T13:08:04;28.30;75.20
25640;DHT22;13497;48.322;16.204;2023-07-31T13:10:30;28.30;74.80
25640;DHT22;13497;48.322;16.204;2023-07-31T13:12:56;28.40;73.60
25640;DHT22;13497;48.322;16.204;2023-07-31T13:15:22;28.40;72.10
25640;DHT22;13497;48.322;16.204;2023-07-31T13:17:48;28.30;72.00
25640;DHT22;13497;48.322;16.204;2023-07-31T13:20:13;28.40;71.50
25640;DHT22;13497;48.322;16.204;2023-07-31T13:22:39;28.60;71.20
25640;DHT22;13497;48.322;16.204;2023-07-31T13:25:05;28.50;72.00
25640;DHT22;13497;48.322;16.204;2023-07-31T13:27:31;28.40;71.60
25640;DHT22;13497;48.322;16.204;2023-07-31T13:29:57;28.20;72.90
25640;DHT22;13497;48.322;16.204;2023-07-31T13:32:23;28.20;73.20
25640;DHT22;13497;48.322;16.204;2023-07-31T13:34:48;28.20;73.00
25640;DHT22;13497;48.322;16.204;2023-07-31T13:37:15;28.30;73.10
25640;DHT22;13497;48.322;16.204;2023-07-31T13:39:40;28.60;72.80
25640;DHT22;13497;48.322;16.204;2023-07-31T13:42:07;28.90;72.60
25640;DHT22;13497;48.322;16.204;2023-07-31T13:44:42;29.10;71.70
25640;DHT22;13497;48.322;16.204;2023-07-31T13:47:09;29.20;72.50
25640;DHT22;13497;48.322;16.204;2023-07-31T13:49:35;29.10;73.20
25640;DHT22;13497;48.322;16.204;2023-07-31T13:52:01;29.10;72.00
25640;DHT22;13497;48.322;16.204;2023-07-31T13:54:27;29.00;71.10
25640;DHT22;13497;48.322;16.204;2023-07-31T13:56:53;29.00;71.50
25640;DHT22;13497;48.322;16.204;2023-07-31T13:59:18;29.20;71.40
25640;DHT22;13497;48.322;16.204;2023-07-31T14:01:45;29.40;69.20
25640;DHT22;13497;48.322;16.204;2023-07-31T14:04:11;29.30;69.30
25640;DHT22;13497;48.322;16.204;2023-07-31T14:06:37;29.20;70.30
25640;DHT22;13497;48.322;16.204;2023-07-31T14:09:03;29.00;71.00
25640;DHT22;13497;48.322;16.204;2023-07-31T14:11:30;28.80;70.60
25640;DHT22;13497;48.322;16.204;2023-07-31T14:13:56;28.70;70.90
25640;DHT22;13497;48.322;16.204;2023-07-31T14:16:22;28.70;71.00
25640;DHT22;13497;48.322;16.204;2023-07-31T14:18:48;28.60;71.20
25640;DHT22;13497;48.322;16.204;2023-07-31T14:21:14;28.60;71.40
25640;DHT22;13497;48.322;16.204;2023-07-31T14:23:40;28.60;70.30
25640;DHT22;13497;48.322;16.204;2023-07-31T14:26:05;28.70;71.00
25640;DHT22;13497;48.322;16.204;2023-07-31T14:28:31;29.00;71.90
25640;DHT22;13497;48.322;16.204;2023-07-31T14:30:57;29.30;69.90
25640;DHT22;13497;48.322;16.204;2023-07-31T14:33:23;29.50;67.90
25640;DHT22;13497;48.322;16.204;2023-07-31T14:35:48;29.80;68.80
25640;DHT22;13497;48.322;16.204;2023-07-31T14:38:14;30.00;67.80
25640;DHT22;13497;48.322;16.204;2023-07-31T14:40:40;30.10;67.30
25640;DHT22;13497;48.322;16.204;2023-07-31T14:43:05;30.00;67.70
25640;DHT22;13497;48.322;16.204;2023-07-31T14:45:31;29.70;67.60
25640;DHT22;13497;48.322;16.204;2023-07-31T14:47:56;29.40;67.70
25640;DHT22;13497;48.322;16.204;2023-07-31T14:50:22;29.10;67.70
25640;DHT22;13497;48.322;16.204;2023-07-31T14:52:48;29.00;68.80
25640;DHT22;13497;48.322;16.204;2023-07-31T14:55:14;28.80;69.30
25640;DHT22;13497;48.322;16.204;2023-07-31T14:57:40;28.60;69.50
25640;DHT22;13497;48.322;16.204;2023-07-31T15:00:05;28.50;69.70
25640;DHT22;13497;48.322;16.204;2023-07-31T15:02:34;28.40;68.50
25640;DHT22;13497;48.322;16.204;2023-07-31T15:05:00;28.40;69.20
25640;DHT22;13497;48.322;16.204;2023-07-31T15:07:25;28.30;68.70
25640;DHT22;13497;48.322;16.204;2023-07-31T15:09:51;28.30;69.00
25640;DHT22;13497;48.322;16.204;2023-07-31T15:12:17;28.20;69.30
25640;DHT22;13497;48.322;16.204;2023-07-31T15:14:42;28.20;70.00
25640;DHT22;13497;48.322;16.204;2023-07-31T15:17:08;28.10;69.70
25640;DHT22;13497;48.322;16.204;2023-07-31T15:19:33;28.10;70.00
25640;DHT22;13497;48.322;16.204;2023-07-31T15:22:03;28.10;69.30
25640;DHT22;13497;48.322;16.204;2023-07-31T15:24:29;28.10;70.70
25640;DHT22;13497;48.322;16.204;2023-07-31T15:26:55;28.30;70.20